Airfield :
LOGIN :

Register | Disclaimer

   EN    FR    IT 

 










Legend :    VFR   Marginal VFR   IFR   Intensive IFR   Very Intensive IFR
Visi :
Ceiling :
>= 8 km
>= 3000ft
5 to 8 km
1000 to 3000 ft
1500m to 5 km
500 to 1000 ft
800 to 1500m
200 to 500 ft
< 800m
< 200 ft
Symbols :   Thunderstorms  Fog  Heavy snow  Heavy precipitations  Wind > 20 kt
SIGMETs :     Misc.  Thunderstorms  Icing  Turbulence  Mountain Waves  Volcanic Ashes







- Airport Elevation : 74 ft
- IATA code : LRH
- Download approach charts


LFBH - La Rochelle Ile de Ré

CURRENT METAR :
  • 211430Z AUTO 25010KT CAVOK 23/14 Q1016 NOSIG

EXPIRED METARs :
  • 211400Z AUTO 25010KT 210V290 CAVOK 23/15 Q1016 NOSIG
  • 211330Z AUTO 25007KT 200V280 CAVOK 23/14 Q1015 NOSIG
  • 211300Z AUTO 24006KT 210V280 CAVOK 23/15 Q1015 NOSIG
  • 211230Z AUTO 21007KT 180V270 CAVOK 22/14 Q1015 NOSIG
  • 211200Z AUTO 22008KT 180V240 9999 FEW044 22/14 Q1015 NOSIG

TAF TAF LFBH
Valid from the 21 at 12:00 until the 22 at 12:00 UTC


211100Z 2112/2212 24010KT CAVOK
BECMG 2122/2124 30005KT
PROB30 2203/2205 0800 BCFG
ATIS : +33 5 46 00 13 92
No reported NOTAMs for that airfield.



MET'MAP, your aeronautical weather chart ! - Copyright ORBIFLY December 2007 - Disclaimer

ORBIFLY MET'MAP TEAM :

Programming & Development : Alexandra Zaïnal
Concept & Development : Baudouin d'Aumeries
Co-Development & Prog : Marc-Olivier Méhu
Technical & hardware support : Manuel Goepfert

Contact : metmap@orbifly.com




SOURCES & CREDITS :

   NOAA